Detall de PIREP

Printer-friendly versionPDF version

[2017/10/07 04:54:00]
Flight IATA:CT0001
Pilot Number:041
Company ICAO:CAT
Aircraft Type:B738/F
PAX:95
Departing Airport: LEVC
Destination Airport: LEMH
Alternate Airport:LEPA
Online: VATSIM
Route:ORVUS M871 PTC
Flight Level:FL240
No Slew and time accel
No pause
Crash detect
Detect pilot in Cockpit between each 30 and 45 minutes
04:54 Zero fuel Weight: 135679 Lbs, Fuel Weight: 9329 Lbs
04:54 VATSIM:LEVC 070430Z VRB02KT 9999 FEW018 15/14 Q1020 NOSIG
04:54 VATSIM:LEMH 070430Z 02022KT CAVOK 17/09 Q1020
04:54 VOICE CATALONIAN
05:02 Parking Brakes off
05:06 Take-off
05:06 Take off Weight: 144321 Lbs
05:06 Wind: 359º @ 001 Knots Heading: 295º
05:06 POS N39º 29´ 31´´ W000º 29´ 21´´
05:07 Gear Up: 171 Knots
05:07 Flaps:4 at 171 Knots
05:07 Flaps:3 at 123 Knots
05:07 Flaps:2 at 119 Knots
05:08 Flaps:1 at 184 Knots
05:08 Flaps:0 at 200 Knots
05:17 TOC
05:17 Fuel Weight: 6010 Lb
05:22 Wind:352º@014 Knots Heading: 085º Ground Speed: 443 Knots Altitude 24160 ft
05:31 TOD
05:31 Fuel Weight: 4409 Lb
05:37 Wind:346º@018 Knots Heading: 070º Ground Speed: 366 Knots Altitude 12063 ft
05:40 Flaps:1 at 233 Knots
05:40 Flaps:2 at 233 Knots
05:40 Flaps:3 at 236 Knots
05:41 Flaps:4 at 236 Knots
05:41 Flaps:3 at 233 Knots
05:43 Flaps:4 at 201 Knots
05:44 Flaps:5 at 197 Knots
05:45 Flaps:6 at 180 Knots
05:45 Gear Down: 173 Knots
05:45 Flaps:7 at 163 Knots
05:49 TouchDown:Rate -119 ft/min Speed: 140 Knots
05:50 VATSIM:LEMH 070530Z 03019KT CAVOK 17/10 Q1020
05:50 Land
05:50 Wind:027º@018 Knots
05:50 Heading: 009º
05:50 Flight Duration: 00:43
05:50 Landing Weight: 138991 Lbs
05:50 POS N39º 51´ 56´´ E004º 13´ 09´´
05:51 Parking brakes on
05:51 Block to Block Duration: 00:49
05:51 Final Fuel: 3209 Lbls
05:51 Spent Fuel: 6119 Lbls
05:51 Flight Length: 245 NM
05:51 TOD Land Length: 84 NM

Exportar CSV

Powered by Drupal - Modified by Danger4k